createdAt,value
2018-04-08T00:01:53.486Z,50.30
2018-04-08T00:04:21.044Z,49.70
2018-04-08T00:06:48.575Z,49.80
2018-04-08T00:09:16.166Z,50.00
2018-04-08T00:11:43.760Z,50.00
2018-04-08T00:14:11.374Z,50.00
2018-04-08T00:16:38.998Z,50.10
2018-04-08T00:19:06.519Z,50.20
2018-04-08T00:21:34.035Z,50.30
2018-04-08T00:24:01.623Z,50.40
2018-04-08T00:26:29.288Z,50.50
2018-04-08T00:28:56.798Z,50.50
2018-04-08T00:31:24.326Z,50.70
2018-04-08T00:33:51.914Z,50.70
2018-04-08T00:36:19.452Z,50.60
2018-04-08T00:38:47.012Z,50.70
2018-04-08T00:41:15.339Z,50.80
2018-04-08T00:43:43.395Z,51.40
2018-04-08T00:46:10.922Z,50.90
2018-04-08T00:48:38.511Z,51.00
2018-04-08T00:51:06.108Z,51.30
2018-04-08T00:53:33.753Z,51.40
2018-04-08T00:56:01.305Z,51.40
2018-04-08T00:58:28.802Z,51.50
2018-04-08T01:00:56.437Z,51.50
2018-04-08T01:03:24.000Z,51.70
2018-04-08T01:05:51.531Z,51.70
2018-04-08T01:08:19.226Z,51.70
2018-04-08T01:10:46.799Z,51.60
2018-04-08T01:13:14.374Z,51.70
2018-04-08T01:15:42.643Z,51.80
2018-04-08T01:18:10.142Z,51.80
2018-04-08T01:20:37.642Z,51.80
2018-04-08T01:23:05.329Z,51.90
2018-04-08T01:25:32.926Z,51.90
2018-04-08T01:28:00.453Z,53.00
2018-04-08T01:30:28.044Z,53.20
2018-04-08T01:32:55.639Z,53.30
2018-04-08T01:35:23.283Z,53.60
2018-04-08T01:37:50.775Z,53.70
2018-04-08T01:40:18.343Z,53.60
2018-04-08T01:42:45.832Z,53.60
2018-04-08T01:45:13.470Z,53.80
2018-04-08T01:47:41.142Z,53.90
2018-04-08T01:50:08.696Z,53.90
2018-04-08T01:52:36.213Z,53.90
2018-04-08T01:55:03.661Z,53.80
2018-04-08T01:57:31.113Z,53.90
2018-04-08T01:59:58.691Z,53.90
2018-04-08T02:02:26.310Z,54.00
2018-04-08T02:04:53.864Z,54.00
2018-04-08T02:07:21.428Z,54.20
2018-04-08T02:09:49.007Z,54.30
2018-04-08T02:12:16.533Z,54.40
2018-04-08T02:14:44.790Z,54.60
2018-04-08T02:17:12.339Z,54.60
2018-04-08T02:19:39.889Z,54.60
2018-04-08T02:22:07.490Z,54.60
2018-04-08T02:24:34.976Z,54.60
2018-04-08T02:27:02.509Z,54.50
2018-04-08T02:29:29.963Z,54.50
2018-04-08T02:31:57.535Z,54.70
2018-04-08T02:34:25.071Z,54.70
2018-04-08T02:36:52.608Z,54.90
2018-04-08T02:39:20.112Z,55.10
2018-04-08T02:41:47.684Z,55.00
2018-04-08T02:44:15.283Z,55.00
2018-04-08T02:46:42.860Z,55.00
2018-04-08T02:49:11.287Z,55.00
2018-04-08T02:51:38.790Z,55.00
2018-04-08T02:54:06.344Z,55.10
2018-04-08T02:56:33.883Z,55.00
2018-04-08T02:59:01.378Z,55.40
2018-04-08T03:01:28.905Z,54.90
2018-04-08T03:03:56.395Z,54.80
2018-04-08T03:06:23.958Z,54.90
2018-04-08T03:08:51.560Z,54.80
2018-04-08T03:11:19.442Z,55.10
2018-04-08T03:13:46.958Z,55.30
2018-04-08T03:16:14.463Z,55.40
2018-04-08T03:18:41.953Z,55.40
2018-04-08T03:21:10.230Z,55.80
2018-04-08T03:23:37.764Z,55.80
2018-04-08T03:26:05.363Z,55.90
2018-04-08T03:28:32.895Z,55.90
2018-04-08T03:31:00.395Z,56.00
2018-04-08T03:33:27.881Z,56.10
2018-04-08T03:35:55.385Z,56.00
2018-04-08T03:38:23.169Z,56.10
2018-04-08T03:40:50.769Z,56.20
2018-04-08T03:43:18.435Z,56.20
2018-04-08T03:45:45.949Z,56.20
2018-04-08T03:48:13.415Z,56.30
2018-04-08T03:50:40.960Z,56.30
2018-04-08T03:53:08.506Z,56.40
2018-04-08T03:55:36.743Z,56.50
2018-04-08T03:58:04.334Z,56.50
2018-04-08T04:00:31.913Z,56.60
2018-04-08T04:02:59.449Z,56.70
2018-04-08T04:05:27.789Z,56.70
2018-04-08T04:07:55.607Z,56.60
2018-04-08T04:10:23.282Z,56.70
2018-04-08T04:12:50.828Z,56.80
2018-04-08T04:15:18.617Z,56.70
2018-04-08T04:17:46.184Z,56.80
2018-04-08T04:20:25.352Z,57.00
2018-04-08T04:23:04.638Z,57.00
2018-04-08T04:28:38.410Z,57.10
2018-04-08T04:31:05.987Z,57.10
2018-04-08T04:33:34.274Z,57.30
2018-04-08T04:36:01.815Z,57.30
2018-04-08T04:38:30.182Z,57.50
2018-04-08T04:40:57.699Z,57.50
2018-04-08T04:43:25.330Z,57.60
2018-04-08T04:45:53.065Z,58.20
2018-04-08T04:48:20.608Z,57.80
2018-04-08T04:50:48.948Z,57.60
2018-04-08T04:53:16.530Z,57.60
2018-04-08T04:55:44.158Z,57.60
2018-04-08T04:58:11.965Z,57.60
2018-04-08T05:00:39.490Z,57.80
2018-04-08T05:03:07.055Z,57.80
2018-04-08T05:05:34.551Z,57.90
2018-04-08T05:08:02.070Z,57.80
2018-04-08T05:10:29.635Z,58.10
2018-04-08T05:12:57.213Z,58.10
2018-04-08T05:15:24.736Z,58.10
2018-04-08T05:17:52.325Z,58.10
2018-04-08T05:20:19.971Z,58.10
2018-04-08T05:22:47.483Z,58.00
2018-04-08T05:25:15.079Z,58.00
2018-04-08T05:27:42.600Z,58.00
2018-04-08T05:30:10.831Z,58.00
2018-04-08T05:32:38.427Z,57.90
2018-04-08T05:35:06.218Z,58.00
2018-04-08T05:37:33.760Z,58.00
2018-04-08T05:40:01.298Z,58.60
2018-04-08T05:42:28.822Z,57.80
2018-04-08T05:44:56.398Z,57.90
2018-04-08T05:47:23.966Z,57.80
2018-04-08T05:49:51.711Z,57.70
2018-04-08T05:52:19.282Z,57.70
2018-04-08T05:54:46.790Z,57.70
2018-04-08T05:57:14.375Z,57.70
2018-04-08T05:59:41.862Z,57.70
2018-04-08T06:02:09.400Z,57.80
2018-04-08T06:04:37.115Z,58.00
2018-04-08T06:07:04.626Z,58.00
2018-04-08T06:09:32.179Z,58.00
2018-04-08T06:11:59.738Z,57.80
2018-04-08T06:14:27.314Z,57.80
2018-04-08T06:16:54.826Z,57.70
2018-04-08T06:19:22.464Z,57.80
2018-04-08T06:21:50.046Z,57.80
2018-04-08T06:24:17.623Z,57.90
2018-04-08T06:26:45.139Z,57.80
2018-04-08T06:29:12.693Z,57.80
2018-04-08T06:31:40.317Z,57.90
2018-04-08T06:34:07.969Z,58.00
2018-04-08T06:36:35.508Z,57.90
2018-04-08T06:39:03.055Z,57.70
2018-04-08T06:41:30.599Z,56.80
2018-04-08T06:43:58.070Z,56.50
2018-04-08T06:46:25.612Z,56.40
2018-04-08T06:48:53.919Z,56.00
2018-04-08T06:51:21.497Z,56.00
2018-04-08T06:53:49.792Z,55.80
2018-04-08T06:56:17.325Z,55.80
2018-04-08T06:58:44.929Z,55.70
2018-04-08T07:01:12.444Z,55.50
2018-04-08T07:03:39.970Z,55.60
2018-04-08T07:06:08.303Z,55.50
2018-04-08T07:08:35.816Z,55.50
2018-04-08T07:11:03.401Z,55.30
2018-04-08T07:13:30.994Z,55.30
2018-04-08T07:15:58.532Z,55.10
2018-04-08T07:18:26.166Z,55.10
2018-04-08T07:20:53.626Z,55.10
2018-04-08T07:23:21.222Z,55.00
2018-04-08T07:25:48.722Z,55.00
2018-04-08T07:28:16.288Z,54.90
2018-04-08T07:30:45.349Z,54.60
2018-04-08T07:33:12.854Z,54.60
2018-04-08T07:35:40.430Z,54.60
2018-04-08T07:38:08.024Z,54.40
2018-04-08T07:40:35.505Z,54.30
2018-04-08T07:43:03.854Z,54.10
2018-04-08T07:45:31.341Z,54.10
2018-04-08T07:47:58.949Z,54.00
2018-04-08T07:50:26.531Z,53.80
2018-04-08T07:52:54.051Z,53.50
2018-04-08T07:55:21.578Z,53.30
2018-04-08T07:57:49.060Z,53.20
2018-04-08T08:00:16.574Z,53.00
2018-04-08T08:02:44.206Z,52.80
2018-04-08T08:05:11.722Z,52.70
2018-04-08T08:07:39.191Z,52.40
2018-04-08T08:10:06.771Z,52.30
2018-04-08T08:12:34.275Z,52.20
2018-04-08T08:15:03.301Z,51.90
2018-04-08T08:17:31.560Z,51.70
2018-04-08T08:19:59.838Z,51.50
2018-04-08T08:22:27.375Z,51.50
2018-04-08T08:24:54.848Z,51.40
2018-04-08T08:27:23.089Z,51.00
2018-04-08T08:29:50.714Z,51.10
2018-04-08T08:32:18.241Z,51.00
2018-04-08T08:34:46.548Z,50.70
2018-04-08T08:37:14.112Z,50.70
2018-04-08T08:39:41.592Z,50.70
2018-04-08T08:42:09.168Z,50.60
2018-04-08T08:44:37.708Z,50.50
2018-04-08T08:47:05.247Z,50.40
2018-04-08T08:49:32.790Z,50.30
2018-04-08T08:52:00.842Z,50.30
2018-04-08T08:54:28.475Z,50.20
2018-04-08T08:56:56.106Z,50.10
2018-04-08T08:59:23.613Z,50.00
2018-04-08T09:01:51.874Z,49.90
2018-04-08T09:04:19.392Z,49.80
2018-04-08T09:06:46.913Z,49.80
2018-04-08T09:09:14.383Z,49.70
2018-04-08T09:11:42.681Z,49.60
2018-04-08T09:14:10.150Z,49.60
2018-04-08T09:16:37.810Z,49.60
2018-04-08T09:19:05.852Z,49.50
2018-04-08T09:21:33.390Z,49.30
2018-04-08T09:24:16.559Z,49.20
2018-04-08T09:26:44.310Z,49.20
2018-04-08T09:29:11.847Z,49.10
2018-04-08T09:31:39.335Z,49.00
2018-04-08T09:34:06.887Z,49.00
2018-04-08T09:36:34.468Z,48.90
2018-04-08T09:39:01.978Z,49.40
2018-04-08T09:41:29.543Z,48.70
2018-04-08T09:43:57.036Z,48.60
2018-04-08T09:46:24.688Z,48.40
2018-04-08T09:48:52.210Z,48.30
2018-04-08T09:51:19.772Z,48.30
2018-04-08T09:53:47.263Z,48.20
2018-04-08T09:56:14.763Z,48.20
2018-04-08T09:58:45.887Z,48.20
2018-04-08T10:01:25.031Z,48.10
2018-04-08T10:03:52.658Z,48.10
2018-04-08T10:06:20.200Z,47.90
2018-04-08T10:08:47.982Z,47.70
2018-04-08T10:11:15.627Z,47.60
2018-04-08T10:13:43.139Z,47.60
2018-04-08T10:16:10.682Z,47.60
2018-04-08T10:18:38.246Z,47.40
2018-04-08T10:21:05.767Z,47.40
2018-04-08T10:23:33.454Z,47.20
2018-04-08T10:26:00.930Z,47.10
2018-04-08T10:28:28.398Z,47.00
2018-04-08T10:30:55.866Z,46.90
2018-04-08T10:33:23.337Z,46.70
2018-04-08T10:35:51.070Z,46.60
2018-04-08T10:38:18.528Z,46.50
2018-04-08T10:40:45.995Z,46.40
2018-04-08T10:43:13.451Z,46.30
2018-04-08T10:45:40.924Z,46.10
2018-04-08T10:48:09.162Z,45.60
2018-04-08T10:50:36.626Z,46.20
2018-04-08T10:53:04.090Z,45.60
2018-04-08T10:55:31.568Z,45.50
2018-04-08T10:57:59.798Z,45.70
2018-04-08T11:00:28.026Z,46.10
2018-04-08T11:02:56.258Z,46.00
2018-04-08T11:05:23.738Z,46.00
2018-04-08T11:07:51.191Z,45.80
2018-04-08T11:10:18.675Z,45.70
2018-04-08T11:12:46.919Z,45.80
2018-04-08T11:15:14.490Z,45.80
2018-04-08T11:17:41.942Z,45.80
2018-04-08T11:20:09.426Z,46.00
2018-04-08T11:22:36.882Z,46.00
2018-04-08T11:25:04.339Z,45.90
2018-04-08T11:27:31.798Z,45.90
2018-04-08T11:29:59.250Z,45.80
2018-04-08T11:32:26.728Z,45.90
2018-04-08T11:34:54.191Z,45.80
2018-04-08T11:37:21.716Z,45.50
2018-04-08T11:39:49.927Z,45.40
2018-04-08T11:42:17.390Z,45.40
2018-04-08T11:44:44.866Z,45.20
2018-04-08T11:47:12.388Z,45.20
2018-04-08T11:49:39.810Z,45.30
2018-04-08T11:52:08.057Z,44.90
2018-04-08T11:54:35.516Z,44.90
2018-04-08T11:57:02.991Z,44.60
2018-04-08T11:59:30.456Z,44.50
2018-04-08T12:01:57.967Z,44.60
2018-04-08T12:04:25.407Z,44.50
2018-04-08T12:06:52.878Z,44.50
2018-04-08T12:09:20.334Z,44.60
2018-04-08T12:11:47.798Z,44.60
2018-04-08T12:14:15.318Z,44.60
2018-04-08T12:16:42.800Z,44.70
2018-04-08T12:19:10.261Z,44.60
2018-04-08T12:21:37.710Z,44.80
2018-04-08T12:24:05.179Z,44.80
2018-04-08T12:26:32.631Z,44.80
2018-04-08T12:29:00.141Z,45.10
2018-04-08T12:31:28.365Z,46.00
2018-04-08T12:33:55.818Z,45.90
2018-04-08T12:36:23.367Z,45.80
2018-04-08T12:38:50.835Z,45.70
2018-04-08T12:41:18.447Z,45.60
2018-04-08T12:43:45.986Z,45.40
2018-04-08T12:46:13.504Z,45.00
2018-04-08T12:48:41.031Z,44.60
2018-04-08T12:51:08.615Z,44.50
2018-04-08T12:53:36.182Z,44.30
2018-04-08T12:56:03.810Z,44.00
2018-04-08T12:58:31.345Z,43.90
2018-04-08T13:00:58.887Z,43.90
2018-04-08T13:03:26.413Z,43.80
2018-04-08T13:05:53.927Z,43.10
2018-04-08T13:08:21.467Z,42.50
2018-04-08T13:10:48.990Z,41.40
2018-04-08T13:13:16.516Z,41.40
2018-04-08T13:15:44.853Z,41.50
2018-04-08T13:18:12.431Z,41.50
2018-04-08T13:20:39.965Z,42.10
2018-04-08T13:23:07.514Z,41.30
2018-04-08T13:25:35.063Z,41.00
2018-04-08T13:28:02.640Z,41.00
2018-04-08T13:30:30.194Z,41.20
2018-04-08T13:32:57.762Z,41.00
2018-04-08T13:35:25.277Z,41.00
2018-04-08T13:37:52.862Z,41.10
2018-04-08T13:40:20.402Z,40.60
2018-04-08T13:42:47.948Z,40.10
2018-04-08T13:45:15.454Z,39.60
2018-04-08T13:47:42.940Z,39.00
2018-04-08T13:50:10.412Z,38.80
2018-04-08T13:52:38.643Z,38.80
2018-04-08T13:55:06.098Z,38.70
2018-04-08T13:57:33.575Z,38.40
2018-04-08T14:00:01.042Z,37.90
2018-04-08T14:02:28.487Z,37.40
2018-04-08T14:04:55.957Z,36.10
2018-04-08T14:07:23.419Z,34.10
2018-04-08T14:09:50.894Z,33.10
2018-04-08T14:12:18.510Z,32.60
2018-04-08T14:14:45.971Z,31.40
2018-04-08T14:17:13.413Z,29.80
2018-04-08T14:19:40.892Z,29.00
2018-04-08T14:22:08.370Z,28.60
2018-04-08T14:24:36.152Z,28.00
2018-04-08T14:27:03.670Z,27.60
2018-04-08T14:29:31.403Z,28.20
2018-04-08T14:31:58.939Z,28.80
2018-04-08T14:34:26.454Z,28.70
2018-04-08T14:36:53.979Z,28.40
2018-04-08T14:39:21.563Z,28.10
2018-04-08T14:41:49.433Z,27.50
2018-04-08T14:44:17.163Z,26.70
2018-04-08T14:46:44.724Z,25.80
2018-04-08T14:49:12.195Z,25.30
2018-04-08T14:51:39.860Z,25.40
2018-04-08T14:54:07.559Z,24.60
2018-04-08T14:56:35.945Z,24.70
2018-04-08T14:59:03.476Z,24.70
2018-04-08T15:01:30.981Z,24.80
2018-04-08T15:03:59.779Z,24.30
2018-04-08T15:06:27.406Z,23.30
2018-04-08T15:08:55.578Z,23.00
2018-04-08T15:11:23.182Z,22.30
2018-04-08T15:13:50.808Z,22.30
2018-04-08T15:16:19.124Z,22.90
2018-04-08T15:18:46.726Z,22.80
2018-04-08T15:21:14.286Z,22.30
2018-04-08T15:23:42.024Z,22.10
2018-04-08T15:26:09.590Z,22.10
2018-04-08T15:28:37.126Z,22.40
2018-04-08T15:31:04.677Z,23.00
2018-04-08T15:33:33.184Z,23.50
2018-04-08T15:36:01.362Z,23.70
2018-04-08T15:38:28.966Z,23.60
2018-04-08T15:40:57.235Z,24.80
2018-04-08T15:43:24.775Z,24.80
2018-04-08T15:45:52.347Z,25.40
2018-04-08T15:48:20.632Z,25.40
2018-04-08T15:50:48.115Z,25.80
2018-04-08T15:53:15.641Z,25.20
2018-04-08T15:55:43.112Z,24.80
2018-04-08T15:58:10.718Z,24.60
2018-04-08T16:00:38.319Z,24.90
2018-04-08T16:03:06.617Z,25.50
2018-04-08T16:05:34.338Z,25.70
2018-04-08T16:08:01.939Z,25.80
2018-04-08T16:10:29.491Z,26.00
2018-04-08T16:12:57.054Z,26.10
2018-04-08T16:15:25.368Z,27.40
2018-04-08T16:17:52.948Z,27.40
2018-04-08T16:20:20.615Z,27.60
2018-04-08T16:22:48.142Z,27.10
2018-04-08T16:25:18.615Z,26.50
2018-04-08T16:27:46.206Z,26.80
2018-04-08T16:30:13.847Z,27.30
2018-04-08T16:32:41.539Z,27.00
2018-04-08T16:35:09.091Z,26.70
2018-04-08T16:37:37.419Z,27.10
2018-04-08T16:40:05.150Z,27.10
2018-04-08T16:42:32.789Z,27.40
2018-04-08T16:45:00.396Z,27.80
2018-04-08T16:47:27.930Z,28.50
2018-04-08T16:49:55.504Z,28.90
2018-04-08T16:52:23.191Z,29.40
2018-04-08T16:54:50.759Z,29.80
2018-04-08T16:57:18.313Z,30.20
2018-04-08T16:59:45.818Z,30.60
2018-04-08T17:02:13.564Z,31.20
2018-04-08T17:04:41.845Z,32.20
2018-04-08T17:07:09.430Z,32.10
2018-04-08T17:09:36.987Z,32.50
2018-04-08T17:12:04.529Z,32.80
2018-04-08T17:14:32.106Z,33.20
2018-04-08T17:16:59.598Z,33.50
2018-04-08T17:19:27.162Z,33.80
2018-04-08T17:21:54.832Z,34.70
2018-04-08T17:24:22.397Z,34.30
2018-04-08T17:26:49.924Z,34.50
2018-04-08T17:29:17.495Z,34.90
2018-04-08T17:31:45.084Z,35.20
2018-04-08T17:34:12.613Z,35.30
2018-04-08T17:36:40.175Z,35.50
2018-04-08T17:39:07.694Z,35.70
2018-04-08T17:41:35.245Z,35.90
2018-04-08T17:44:02.821Z,36.10
2018-04-08T17:46:30.449Z,36.30
2018-04-08T17:48:58.134Z,36.60
2018-04-08T17:51:25.663Z,37.10
2018-04-08T17:53:53.217Z,37.60
2018-04-08T17:56:21.550Z,38.20
2018-04-08T17:58:49.129Z,38.20
2018-04-08T18:01:16.663Z,38.50
2018-04-08T18:03:45.039Z,39.10
2018-04-08T18:06:12.583Z,39.10
2018-04-08T18:08:40.212Z,39.50
2018-04-08T18:11:08.824Z,39.80
2018-04-08T18:13:36.575Z,40.20
2018-04-08T18:16:04.207Z,40.50
2018-04-08T18:18:31.779Z,40.70
2018-04-08T18:21:00.135Z,41.50
2018-04-08T18:23:27.660Z,41.10
2018-04-08T18:25:55.232Z,41.30
2018-04-08T18:28:22.804Z,41.60
2018-04-08T18:30:50.344Z,41.80
2018-04-08T18:33:17.889Z,42.10
2018-04-08T18:35:45.508Z,42.20
2018-04-08T18:38:13.138Z,42.50
2018-04-08T18:40:40.719Z,43.30
2018-04-08T18:43:09.090Z,43.00
2018-04-08T18:45:36.628Z,43.20
2018-04-08T18:48:04.147Z,43.50
2018-04-08T18:53:05.733Z,44.10
2018-04-08T18:55:33.350Z,44.30
2018-04-08T18:58:00.901Z,44.60
2018-04-08T19:00:28.419Z,44.90
2018-04-08T19:02:56.034Z,45.10
2018-04-08T19:05:23.618Z,45.20
2018-04-08T19:07:51.316Z,45.40
2018-04-08T19:10:18.911Z,45.40
2018-04-08T19:12:46.439Z,45.70
2018-04-08T19:15:20.204Z,46.00
2018-04-08T19:17:53.411Z,46.10
2018-04-08T19:20:20.960Z,46.30
2018-04-08T19:22:48.626Z,46.50
2018-04-08T19:25:16.282Z,46.70
2018-04-08T19:27:43.820Z,46.70
2018-04-08T19:30:17.117Z,46.90
2018-04-08T19:32:44.642Z,47.20
2018-04-08T19:35:12.230Z,47.40
2018-04-08T19:37:39.929Z,47.60
2018-04-08T19:40:07.539Z,47.60
2018-04-08T19:42:35.039Z,47.80
2018-04-08T19:45:02.557Z,47.80
2018-04-08T19:47:30.496Z,48.10
2018-04-08T19:49:58.007Z,48.20
2018-04-08T19:52:25.501Z,48.60
2018-04-08T19:54:52.982Z,48.70
2018-04-08T19:57:20.494Z,49.10
2018-04-08T19:59:47.961Z,49.40
2018-04-08T20:02:15.464Z,49.70
2018-04-08T20:04:42.941Z,49.90
2018-04-08T20:07:10.657Z,50.10
2018-04-08T20:09:38.120Z,50.20
2018-04-08T20:12:05.596Z,50.30
2018-04-08T20:14:33.087Z,50.40
2018-04-08T20:17:00.563Z,50.40
2018-04-08T20:19:28.020Z,50.50
2018-04-08T20:21:55.550Z,50.70
2018-04-08T20:24:23.983Z,50.80
2018-04-08T20:26:51.503Z,50.90
2018-04-08T20:29:19.750Z,51.00
2018-04-08T20:31:47.247Z,51.00
2018-04-08T20:34:14.747Z,51.60
2018-04-08T20:36:42.251Z,51.20
2018-04-08T20:39:09.758Z,51.40
2018-04-08T20:41:37.234Z,51.50
2018-04-08T20:44:05.635Z,51.70
2018-04-08T20:46:33.125Z,51.80
2018-04-08T20:49:00.652Z,51.90
2018-04-08T20:51:28.086Z,52.00
2018-04-08T20:53:55.569Z,52.50
2018-04-08T20:56:23.105Z,52.40
2018-04-08T20:58:50.584Z,52.80
2018-04-08T21:01:18.217Z,53.10
2018-04-08T21:03:45.688Z,53.20
2018-04-08T21:06:13.157Z,53.30
2018-04-08T21:08:40.639Z,53.30
2018-04-08T21:11:08.266Z,53.40
2018-04-08T21:13:35.756Z,53.70
2018-04-08T21:16:03.221Z,53.80
2018-04-08T21:18:30.694Z,53.90
2018-04-08T21:20:58.209Z,54.00
2018-04-08T21:23:26.465Z,54.00
2018-04-08T21:25:53.946Z,54.00
2018-04-08T21:28:21.447Z,54.00
2018-04-08T21:30:48.943Z,54.10
2018-04-08T21:33:16.418Z,54.10
2018-04-08T21:35:44.669Z,54.20
2018-04-08T21:38:12.170Z,54.20
2018-04-08T21:40:39.675Z,54.30
2018-04-08T21:43:07.159Z,54.40
2018-04-08T21:45:35.410Z,54.50
2018-04-08T21:48:02.881Z,54.50
2018-04-08T21:50:31.131Z,54.70
2018-04-08T21:52:58.648Z,54.70
2018-04-08T21:55:26.143Z,54.80
2018-04-08T21:57:53.660Z,54.80
2018-04-08T22:00:21.144Z,54.90
2018-04-08T22:02:48.690Z,55.00
2018-04-08T22:05:16.189Z,54.90
2018-04-08T22:07:43.666Z,55.10
2018-04-08T22:10:11.906Z,55.70
2018-04-08T22:12:39.382Z,55.40
2018-04-08T22:15:07.140Z,55.50
2018-04-08T22:17:34.615Z,55.60
2018-04-08T22:20:02.355Z,55.70
2018-04-08T22:22:30.106Z,55.80
2018-04-08T22:24:57.692Z,55.80
2018-04-08T22:27:25.162Z,55.80
2018-04-08T22:29:53.382Z,56.10
2018-04-08T22:32:20.878Z,56.10
2018-04-08T22:34:48.438Z,56.20
2018-04-08T22:37:16.094Z,56.20
2018-04-08T22:39:43.550Z,56.30
2018-04-08T22:42:11.335Z,56.50
2018-04-08T22:44:38.962Z,56.50
2018-04-08T22:47:06.455Z,56.70
2018-04-08T22:49:33.999Z,56.80
2018-04-08T22:52:01.660Z,56.90
2018-04-08T22:54:29.137Z,57.00
2018-04-08T22:56:56.603Z,56.90
2018-04-08T22:59:24.058Z,57.00
2018-04-08T23:01:51.587Z,57.10
2018-04-08T23:04:19.224Z,57.10
2018-04-08T23:06:46.761Z,57.30
2018-04-08T23:09:14.223Z,57.40
2018-04-08T23:11:41.743Z,57.30
2018-04-08T23:14:09.182Z,57.50
2018-04-08T23:16:36.948Z,57.50
2018-04-08T23:19:04.626Z,57.60
2018-04-08T23:21:32.087Z,57.80
2018-04-08T23:23:59.550Z,58.00
2018-04-08T23:26:27.062Z,58.00
2018-04-08T23:28:54.842Z,58.00
2018-04-08T23:31:22.599Z,58.70
2018-04-08T23:33:50.094Z,58.20
2018-04-08T23:36:17.832Z,58.10
2018-04-08T23:38:45.439Z,58.20
2018-04-08T23:41:12.994Z,58.20
2018-04-08T23:43:40.478Z,58.00
2018-04-08T23:46:07.951Z,58.10
2018-04-08T23:48:35.419Z,58.20
2018-04-08T23:51:03.115Z,58.20
2018-04-08T23:53:30.594Z,58.40
2018-04-08T23:55:58.070Z,58.40
2018-04-08T23:58:25.563Z,58.40
